Time,TemperatureF,DewpointF,PressureIn,WindDirection,WindDirectionDegrees,WindSpeedMPH,WindSpeedGustMPH,Humidity,HourlyPrecipIn,Conditions,Clouds,dailyrainin,SoftwareType,DateUTC
2013-05-01 00:02:00,26.0,26.0,-100.00,NE,35,12.0,26.0,100,0.00,,,-99.99,,2013-05-01 06:02:00,
2013-05-01 00:11:00,26.0,26.0,-100.00,NE,37,14.0,29.0,100,0.01,,,-99.99,,2013-05-01 06:11:00,
2013-05-01 00:22:00,26.0,26.0,-100.00,NE,37,14.0,21.0,100,0.01,,,-99.99,,2013-05-01 06:22:00,
2013-05-01 00:32:00,-999.0,-99.9,-100.00,NE,35,12.0,21.0,-999,-99.99,,,-99.99,,2013-05-01 06:32:00,
2013-05-01 00:42:00,26.0,26.0,-100.00,NNE,30,12.0,17.0,99,0.00,,,-99.99,,2013-05-01 06:42:00,
2013-05-01 00:51:00,27.0,26.0,-100.00,NNE,28,12.0,17.0,98,0.00,,,-99.99,,2013-05-01 06:51:00,
2013-05-01 01:01:00,27.0,26.0,-100.00,NNE,23,11.0,17.0,96,0.00,,,-99.99,,2013-05-01 07:01:00,
2013-05-01 01:11:00,27.0,26.0,-100.00,NNE,27,11.0,16.0,95,0.00,,,-99.99,,2013-05-01 07:11:00,
2013-05-01 01:21:00,26.0,25.0,-100.00,NNE,18,12.0,18.0,96,0.00,,,-99.99,,2013-05-01 07:21:00,
2013-05-01 01:32:00,26.0,25.0,-100.00,North,7,14.0,19.0,97,0.00,,,-99.99,,2013-05-01 07:32:00,
2013-05-01 01:41:00,26.0,25.0,-100.00,North,354,14.0,19.0,98,0.00,,,-99.99,,2013-05-01 07:41:00,
2013-05-01 01:52:00,25.0,25.0,-100.00,North,352,14.0,19.0,99,0.00,,,-99.99,,2013-05-01 07:52:00,
2013-05-01 02:01:00,25.0,25.0,-100.00,North,353,14.0,18.0,99,0.00,,,-99.99,,2013-05-01 08:01:00,
2013-05-01 02:11:00,25.0,25.0,-100.00,North,0,13.0,19.0,100,0.01,,,-99.99,,2013-05-01 08:11:00,
2013-05-01 02:21:00,25.0,25.0,-100.00,North,6,12.0,19.0,100,0.00,,,-99.99,,2013-05-01 08:21:00,
2013-05-01 02:31:00,25.0,25.0,-100.00,North,359,11.0,17.0,100,0.01,,,-99.99,,2013-05-01 08:31:00,
2013-05-01 02:42:00,25.0,25.0,-100.00,North,4,12.0,16.0,100,0.01,,,-99.99,,2013-05-01 08:42:00,
2013-05-01 02:52:00,25.0,25.0,-100.00,North,1,12.0,19.0,100,0.00,,,-99.99,,2013-05-01 08:52:00,
2013-05-01 03:01:00,25.0,24.0,-100.00,North,4,12.0,18.0,99,0.00,,,-99.99,,2013-05-01 09:01:00,
2013-05-01 03:11:00,24.0,24.0,-100.00,NNE,13,15.0,20.0,99,0.00,,,-99.99,,2013-05-01 09:11:00,
2013-05-01 03:21:00,24.0,24.0,-100.00,NNE,16,15.0,21.0,99,0.00,,,-99.99,,2013-05-01 09:21:00,
2013-05-01 03:33:00,25.0,24.0,-100.00,NNE,18,13.0,21.0,99,0.01,,,-99.99,,2013-05-01 09:33:00,
2013-05-01 03:42:00,24.0,24.0,-100.00,NNE,16,15.0,19.0,99,0.00,,,-99.99,,2013-05-01 09:42:00,
2013-05-01 03:52:00,24.0,24.0,-100.00,NNE,14,16.0,21.0,99,0.00,,,-99.99,,2013-05-01 09:52:00,
2013-05-01 04:02:00,24.0,24.0,-100.00,NNE,18,16.0,20.0,99,0.00,,,-99.99,,2013-05-01 10:02:00,
2013-05-01 04:12:00,24.0,24.0,-100.00,NNE,23,11.0,17.0,99,0.00,,,-99.99,,2013-05-01 10:12:00,
2013-05-01 04:22:00,24.0,24.0,-100.00,NNE,24,12.0,17.0,99,-99.99,,,-99.99,,2013-05-01 10:22:00,
2013-05-01 04:33:00,24.0,23.0,-100.00,NNE,24,13.0,19.0,99,0.00,,,-99.99,,2013-05-01 10:33:00,
2013-05-01 04:42:00,23.0,23.0,-100.00,NNE,20,16.0,19.0,99,0.00,,,-99.99,,2013-05-01 10:42:00,
2013-05-01 04:52:00,23.0,23.0,-100.00,NNE,21,14.0,23.0,98,0.00,,,-99.99,,2013-05-01 10:52:00,
2013-05-01 05:02:00,23.0,23.0,-100.00,NNE,17,16.0,22.0,98,0.00,,,-99.99,,2013-05-01 11:02:00,
2013-05-01 05:11:00,23.0,22.0,-100.00,NNE,23,15.0,22.0,98,0.00,,,-99.99,,2013-05-01 11:11:00,
2013-05-01 05:22:00,23.0,22.0,-100.00,NNE,28,14.0,20.0,96,0.00,,,-99.99,,2013-05-01 11:22:00,
2013-05-01 05:32:00,-999.0,-99.9,-100.00,NNE,27,15.0,25.0,-999,-99.99,,,-99.99,,2013-05-01 11:32:00,
2013-05-01 05:42:00,23.0,22.0,-100.00,NNE,27,15.0,21.0,94,0.00,,,-99.99,,2013-05-01 11:42:00,
2013-05-01 05:51:00,23.0,22.0,-100.00,NNE,27,14.0,17.0,95,0.00,,,-99.99,,2013-05-01 11:51:00,
2013-05-01 06:01:00,23.0,22.0,-100.00,NNE,18,16.0,23.0,96,0.00,,,-99.99,,2013-05-01 12:01:00,
2013-05-01 06:11:00,23.0,22.0,-100.00,NNE,20,15.0,21.0,96,0.00,,,-99.99,,2013-05-01 12:11:00,
2013-05-01 06:21:00,23.0,22.0,-100.00,NNE,14,17.0,22.0,96,-99.99,,,-99.99,,2013-05-01 12:21:00,
2013-05-01 06:31:00,23.0,21.0,-100.00,NNE,18,19.0,26.0,95,0.00,,,-99.99,,2013-05-01 12:31:00,
2013-05-01 06:41:00,23.0,21.0,-100.00,NNE,20,17.0,24.0,95,0.00,,,-99.99,,2013-05-01 12:41:00,
2013-05-01 06:51:00,22.0,21.0,-100.00,NNE,18,19.0,24.0,95,0.00,,,-99.99,,2013-05-01 12:51:00,
2013-05-01 07:02:00,-999.0,-99.9,-100.00,NNE,23,19.0,23.0,-999,-99.99,,,-99.99,,2013-05-01 13:02:00,
2013-05-01 07:11:00,23.0,21.0,-100.00,NNE,24,17.0,22.0,94,0.00,,,-99.99,,2013-05-01 13:11:00,
2013-05-01 07:21:00,23.0,21.0,-100.00,NNE,28,15.0,22.0,94,0.00,,,-99.99,,2013-05-01 13:21:00,
2013-05-01 07:32:00,-999.0,-99.9,-100.00,NNE,25,16.0,21.0,-999,-99.99,,,-99.99,,2013-05-01 13:32:00,
2013-05-01 07:42:00,22.0,20.0,-100.00,NNE,24,17.0,24.0,95,0.01,,,-99.99,,2013-05-01 13:42:00,
2013-05-01 07:52:00,22.0,20.0,-100.00,NNE,21,18.0,23.0,95,0.01,,,-99.99,,2013-05-01 13:52:00,
2013-05-01 08:02:00,22.0,20.0,-100.00,NNE,24,16.0,23.0,95,0.03,,,-99.99,,2013-05-01 14:02:00,
2013-05-01 08:11:00,21.0,20.0,-100.00,NNE,24,18.0,26.0,94,0.00,,,-99.99,,2013-05-01 14:11:00,
2013-05-01 08:21:00,22.0,20.0,-100.00,NNE,25,18.0,24.0,94,0.01,,,-99.99,,2013-05-01 14:21:00,
2013-05-01 08:32:00,22.0,20.0,-100.00,NNE,24,18.0,24.0,94,0.01,,,-99.99,,2013-05-01 14:32:00,
2013-05-01 08:42:00,22.0,20.0,-100.00,NNE,24,19.0,26.0,93,0.00,,,-99.99,,2013-05-01 14:42:00,
2013-05-01 08:51:00,22.0,20.0,-100.00,NNE,25,19.0,24.0,94,0.01,,,-99.99,,2013-05-01 14:51:00,
2013-05-01 09:01:00,22.0,20.0,-100.00,NNE,30,16.0,22.0,93,0.00,,,-99.99,,2013-05-01 15:01:00,
2013-05-01 09:11:00,22.0,19.0,-100.00,NNE,25,18.0,26.0,91,0.00,,,-99.99,,2013-05-01 15:11:00,
2013-05-01 09:21:00,22.0,19.0,-100.00,NNE,23,20.0,26.0,90,0.00,,,-99.99,,2013-05-01 15:21:00,
2013-05-01 09:33:00,-999.0,-99.9,-100.00,NNE,24,19.0,28.0,-999,-99.99,,,-99.99,,2013-05-01 15:33:00,
2013-05-01 09:42:00,22.0,19.0,-100.00,NNE,27,17.0,26.0,87,0.00,,,-99.99,,2013-05-01 15:42:00,
2013-05-01 09:53:00,22.0,19.0,-100.00,NNE,31,17.0,23.0,86,0.00,,,-99.99,,2013-05-01 15:53:00,
2013-05-01 10:03:00,22.0,19.0,-100.00,NNE,30,17.0,24.0,86,0.01,,,-99.99,,2013-05-01 16:03:00,
2013-05-01 10:12:00,-999.0,-99.9,-100.00,NNE,30,18.0,27.0,-999,-99.99,,,-99.99,,2013-05-01 16:12:00,
2013-05-01 10:22:00,22.0,19.0,-100.00,NNE,32,19.0,27.0,88,0.00,,,-99.99,,2013-05-01 16:22:00,
2013-05-01 10:31:00,22.0,18.0,-100.00,NE,34,19.0,32.0,85,0.00,,,-99.99,,2013-05-01 16:31:00,
2013-05-01 10:42:00,-999.0,-99.9,-100.00,NE,34,18.0,27.0,-999,-99.99,,,-99.99,,2013-05-01 16:42:00,
2013-05-01 10:53:00,22.0,18.0,-100.00,NNE,30,20.0,28.0,85,0.01,,,-99.99,,2013-05-01 16:53:00,
2013-05-01 11:02:00,22.0,19.0,-100.00,NNE,27,21.0,29.0,86,0.01,,,-99.99,,2013-05-01 17:02:00,
2013-05-01 11:12:00,23.0,20.0,-100.00,NNE,27,20.0,27.0,88,0.01,,,-99.99,,2013-05-01 17:12:00,
2013-05-01 11:21:00,23.0,20.0,-100.00,NNE,28,21.0,28.0,86,0.00,,,-99.99,,2013-05-01 17:21:00,
2013-05-01 11:31:00,24.0,20.0,-100.00,NNE,27,21.0,29.0,88,0.00,,,-99.99,,2013-05-01 17:31:00,
2013-05-01 11:42:00,24.0,20.0,-100.00,NNE,31,19.0,30.0,87,0.00,,,-99.99,,2013-05-01 17:42:00,
2013-05-01 11:52:00,23.0,20.0,-100.00,NNE,23,22.0,31.0,88,0.00,,,-99.99,,2013-05-01 17:52:00,
2013-05-01 12:01:00,23.0,20.0,-100.00,NNE,21,23.0,29.0,87,0.00,,,-99.99,,2013-05-01 18:01:00,
2013-05-01 12:11:00,23.0,19.0,-100.00,NNE,25,19.0,28.0,85,0.00,,,-99.99,,2013-05-01 18:11:00,
2013-05-01 12:22:00,22.0,20.0,-100.00,NNE,18,19.0,28.0,92,0.00,,,-99.99,,2013-05-01 18:22:00,
2013-05-01 12:32:00,23.0,21.0,-100.00,NNE,14,19.0,28.0,92,0.00,,,-99.99,,2013-05-01 18:32:00,
2013-05-01 12:41:00,22.0,21.0,-100.00,North,6,18.0,24.0,94,0.00,,,-99.99,,2013-05-01 18:41:00,
2013-05-01 13:02:00,23.0,21.0,-100.00,North,0,19.0,26.0,92,0.00,,,-99.99,,2013-05-01 19:02:00,
2013-05-01 13:11:00,23.0,21.0,-100.00,North,3,20.0,29.0,92,0.00,,,-99.99,,2013-05-01 19:11:00,
2013-05-01 13:22:00,22.0,20.0,-100.00,North,3,19.0,29.0,91,0.00,,,-99.99,,2013-05-01 19:22:00,
2013-05-01 13:32:00,22.0,20.0,-100.00,North,0,19.0,26.0,92,0.03,,,-99.99,,2013-05-01 19:32:00,
2013-05-01 13:42:00,22.0,20.0,-100.00,North,3,19.0,25.0,91,0.03,,,-99.99,,2013-05-01 19:42:00,
2013-05-01 13:52:00,22.0,19.0,-100.00,North,6,20.0,26.0,90,0.01,,,-99.99,,2013-05-01 19:52:00,
2013-05-01 14:01:00,22.0,20.0,-100.00,North,10,21.0,28.0,92,0.01,,,-99.99,,2013-05-01 20:01:00,
2013-05-01 14:11:00,21.0,20.0,-100.00,NNE,13,22.0,28.0,93,0.01,,,-99.99,,2013-05-01 20:11:00,
2013-05-01 14:21:00,22.0,20.0,-100.00,NNE,13,22.0,27.0,93,0.01,,,-99.99,,2013-05-01 20:21:00,
2013-05-01 14:42:00,21.0,20.0,-100.00,NNE,14,22.0,27.0,93,0.01,,,-99.99,,2013-05-01 20:42:00,
2013-05-01 14:52:00,22.0,20.0,-100.00,North,8,19.0,27.0,93,0.01,,,-99.99,,2013-05-01 20:52:00,
2013-05-01 15:01:00,22.0,20.0,-100.00,North,6,19.0,26.0,93,0.01,,,-99.99,,2013-05-01 21:01:00,
2013-05-01 15:11:00,22.0,21.0,-100.00,North,11,19.0,26.0,95,0.01,,,-99.99,,2013-05-01 21:11:00,
2013-05-01 15:22:00,22.0,20.0,-100.00,North,7,19.0,25.0,93,0.01,,,-99.99,,2013-05-01 21:22:00,
2013-05-01 15:32:00,-999.0,-99.9,-100.00,North,4,17.0,24.0,-999,-99.99,,,-99.99,,2013-05-01 21:32:00,
2013-05-01 15:43:00,22.0,20.0,-100.00,North,8,18.0,26.0,93,0.00,,,-99.99,,2013-05-01 21:43:00,
2013-05-01 15:53:00,22.0,19.0,-100.00,North,10,19.0,24.0,89,0.00,,,-99.99,,2013-05-01 21:53:00,
2013-05-01 16:03:00,22.0,20.0,-100.00,North,11,19.0,26.0,90,0.00,,,-99.99,,2013-05-01 22:03:00,
2013-05-01 16:12:00,23.0,20.0,-100.00,North,8,19.0,24.0,90,0.00,,,-99.99,,2013-05-01 22:12:00,
2013-05-01 16:23:00,23.0,20.0,-100.00,North,10,17.0,24.0,90,0.00,,,-99.99,,2013-05-01 22:23:00,
2013-05-01 16:33:00,23.0,20.0,-100.00,North,4,16.0,22.0,89,0.00,,,-99.99,,2013-05-01 22:33:00,
2013-05-01 16:42:00,23.0,20.0,-100.00,North,0,16.0,22.0,90,-99.99,,,-99.99,,2013-05-01 22:42:00,
2013-05-01 16:52:00,22.0,20.0,-100.00,North,11,17.0,24.0,90,0.00,,,-99.99,,2013-05-01 22:52:00,
2013-05-01 17:02:00,22.0,20.0,-100.00,North,11,17.0,24.0,91,0.00,,,-99.99,,2013-05-01 23:02:00,
2013-05-01 17:11:00,22.0,20.0,-100.00,North,7,16.0,24.0,91,0.01,,,-99.99,,2013-05-01 23:11:00,
2013-05-01 17:21:00,22.0,20.0,-100.00,North,4,15.0,24.0,90,0.00,,,-99.99,,2013-05-01 23:21:00,
2013-05-01 17:32:00,22.0,19.0,-100.00,North,4,16.0,22.0,89,0.00,,,-99.99,,2013-05-01 23:32:00,
2013-05-01 17:42:00,22.0,19.0,-100.00,North,7,16.0,22.0,90,0.00,,,-99.99,,2013-05-01 23:42:00,
2013-05-01 17:52:00,22.0,20.0,-100.00,North,10,18.0,22.0,90,0.00,,,-99.99,,2013-05-01 23:52:00,
2013-05-01 18:01:00,22.0,19.0,-100.00,North,11,16.0,22.0,90,0.00,,,-99.99,,2013-05-02 00:01:00,
2013-05-01 18:11:00,21.0,19.0,-100.00,North,7,16.0,22.0,90,0.00,,,-99.99,,2013-05-02 00:11:00,
2013-05-01 18:21:00,21.0,18.0,-100.00,North,352,16.0,21.0,91,0.00,,,-99.99,,2013-05-02 00:21:00,
2013-05-01 18:32:00,21.0,18.0,-100.00,North,357,14.0,22.0,91,0.00,,,-99.99,,2013-05-02 00:32:00,
2013-05-01 18:52:00,20.0,18.0,-100.00,North,0,12.0,16.0,90,0.00,,,-99.99,,2013-05-02 00:52:00,
2013-05-01 19:01:00,20.0,18.0,-100.00,North,8,12.0,17.0,90,-99.99,,,-99.99,,2013-05-02 01:01:00,
2013-05-01 19:11:00,20.0,17.0,-100.00,North,4,12.0,16.0,88,0.01,,,-99.99,,2013-05-02 01:11:00,
2013-05-01 19:21:00,20.0,18.0,-100.00,North,4,11.0,15.0,90,0.01,,,-99.99,,2013-05-02 01:21:00,
2013-05-01 19:32:00,20.0,17.0,-100.00,North,10,12.0,17.0,88,0.00,,,-99.99,,2013-05-02 01:32:00,
2013-05-01 19:42:00,20.0,17.0,-100.00,North,10,12.0,17.0,89,0.01,,,-99.99,,2013-05-02 01:42:00,
2013-05-01 19:52:00,20.0,18.0,-100.00,North,10,12.0,17.0,91,0.00,,,-99.99,,2013-05-02 01:52:00,
2013-05-01 20:01:00,19.0,17.0,-100.00,NNE,24,13.0,16.0,90,0.00,,,-99.99,,2013-05-02 02:01:00,
2013-05-01 20:11:00,19.0,17.0,-100.00,NNE,21,13.0,17.0,90,0.00,,,-99.99,,2013-05-02 02:11:00,
2013-05-01 20:21:00,19.0,17.0,-100.00,NNE,23,11.0,16.0,90,0.01,,,-99.99,,2013-05-02 02:21:00,
2013-05-01 20:32:00,-999.0,-99.9,-100.00,NNE,21,11.0,15.0,-999,-99.99,,,-99.99,,2013-05-02 02:32:00,
2013-05-01 20:42:00,-999.0,-99.9,-100.00,NNE,21,11.0,15.0,-999,-99.99,,,-99.99,,2013-05-02 02:42:00,
2013-05-01 20:52:00,-999.0,-99.9,-100.00,NNE,21,11.0,15.0,-999,-99.99,,,-99.99,,2013-05-02 02:52:00,
2013-05-01 21:01:00,18.0,16.0,-100.00,NNE,31,9.0,14.0,90,0.00,,,-99.99,,2013-05-02 03:01:00,
2013-05-01 21:11:00,18.0,16.0,-100.00,NE,37,9.0,15.0,90,0.00,,,-99.99,,2013-05-02 03:11:00,
2013-05-01 21:22:00,18.0,16.0,-100.00,NE,35,7.0,13.0,91,0.00,,,-99.99,,2013-05-02 03:22:00,
2013-05-01 21:33:00,-999.0,-99.9,-100.00,NNE,31,7.0,11.0,-999,-99.99,,,-99.99,,2013-05-02 03:33:00,
2013-05-01 21:42:00,17.0,15.0,-100.00,NNE,30,8.0,11.0,92,0.00,,,-99.99,,2013-05-02 03:42:00,
2013-05-01 21:52:00,17.0,15.0,-100.00,NNE,31,7.0,11.0,93,0.01,,,-99.99,,2013-05-02 03:52:00,
2013-05-01 22:03:00,17.0,15.0,-100.00,NNE,32,7.0,11.0,93,0.00,,,-99.99,,2013-05-02 04:03:00,
2013-05-01 22:12:00,17.0,14.0,-100.00,NNE,20,7.0,12.0,88,0.00,,,-99.99,,2013-05-02 04:12:00,
2013-05-01 22:23:00,16.0,14.0,-100.00,NW,316,9.0,15.0,92,0.00,,,-99.99,,2013-05-02 04:23:00,
2013-05-01 22:33:00,17.0,15.0,-100.00,NW,319,9.0,12.0,92,0.00,,,-99.99,,2013-05-02 04:33:00,
2013-05-01 22:42:00,16.0,15.0,-100.00,North,349,9.0,11.0,93,0.00,,,-99.99,,2013-05-02 04:42:00,
2013-05-01 22:52:00,15.0,13.0,-100.00,NNE,20,7.0,9.0,93,0.00,,,-99.99,,2013-05-02 04:52:00,
2013-05-01 23:02:00,15.0,13.0,-100.00,NE,34,6.0,9.0,91,0.00,,,-99.99,,2013-05-02 05:02:00,
2013-05-01 23:12:00,15.0,13.0,-100.00,NNE,28,6.0,8.0,93,0.00,,,-99.99,,2013-05-02 05:12:00,
2013-05-01 23:22:00,16.0,14.0,-100.00,NE,37,7.0,11.0,91,0.00,,,-99.99,,2013-05-02 05:22:00,
2013-05-01 23:32:00,16.0,13.0,-100.00,NE,40,9.0,14.0,87,0.00,,,-99.99,,2013-05-02 05:32:00,
2013-05-01 23:42:00,17.0,12.0,-100.00,NE,49,10.0,12.0,82,0.00,,,-99.99,,2013-05-02 05:42:00,
2013-05-01 23:51:00,17.0,12.0,-100.00,ENE,68,7.0,11.0,80,0.00,,,-99.99,,2013-05-02 05:51:00,